San Francisco, CA

7:54 AM PST on February 14, 2016 (GMT -0800)
San Francisco International | | Change Station
CLOSE
Current Station
Airport
Location: San Francisco,
Elevation: 16 ft
Nearby Weather Stations

Elev 16 ft 37.62 °N, 122.37 °W | Updated 58 minutes ago

Partly Cloudy
Partly Cloudy
51 °F
Feels Like 51 °F
N
4
Wind Variable Wind from SSE

Today
High -- | Low -- °F
--% Chance of Precip.
Yesterday
High -- | Low -- °F
Precip. -- in
Pressure 30.30 in
Visibility 10.0 miles
Clouds Few 15000 ft
Mostly Cloudy 20000 ft
Dew Point 46 °F
Humidity 83%
Rainfall 0.00 in
Snow Depth Not available.
7:00 AM 5:47 PM
Waxing Crescent, 43% visible
METAR KSFO 141456Z 15003KT 10SM FEW150 BKN200 11/08 A3030 RMK AO2 SLP259 T01060078 53006 $
Pressure 30.30 in
Visibility 10.0 miles
Clouds Few 15000 ft
Mostly Cloudy 20000 ft
Dew Point 46 °F
Humidity 83%
Rainfall 0.00 in
Snow Depth Not available.
7:00 AM 5:47 PM
Waxing Crescent, 43% visible
METAR KSFO 141456Z 15003KT 10SM FEW150 BKN200 11/08 A3030 RMK AO2 SLP259 T01060078 53006 $

10-Day Weather Forecast

Almanac

Astronomy

Feb. 14, 2016 Rise Set
Actual Time
Civil Twilight
Nautical Twilight
Astronomical Twilight
Moon
Length of Visible Light
Length of Day
Tomorrow will be .
, % of the Moon is Illuminated

Today's Extremes

State Highs State Lows

Community

WunderPhotos

Upload Photos

1,892,802 photos uploaded!

WunderBlog® & News

Nearby

Air Quality

  Air Quality AQ Index Pollutant
Not available.

Snow Depth

Station Depth Elevation

Earthquake Activity

City Distance Mag. Time & Date
Minimum magnitude displayed is 2.5.

Coastal Water Temperatures

Place Temperature

Stations

Nearby Weather Stations

Station Location Temp. Windchill Dew Point Humidity Wind Precip. Elev Updated Type
                   

Watches & Warnings

There are currently no watches in effect.